Huvudsida
METAR-TAF:

METAR-TAF

Flygplatser :

Stockholm, Sverige

Stockholm-Bromma flygplats

latitud: 59-21N, longitud: 017-57E, höjd: 14 m

Aktuellt väderrapport

Denna rapport gjordes för 14 minuter sedan, klockan 14:50 UTC
Vind 17 kt från väst/nordväst
Temperatur 17°C
Fuktighet 27%
Tryck 1009 hPa
Sikt 10 km eller mer
Inga moln under 1 500 m eller inga cumulonimbus

METAR: ESSB 211450Z 30017KT CAVOK 17/M02 Q1009

Tid: 17:04 (15:04 UTC)

Väderprognos

Denna rapport gjordes för 3 timmar och 34 minuter sedan, klockan 11:30 UTC
Prognos gäller från 21 kl. 12 UTC till 21 kl. 15 UTC
Vind 15 kt från väst i byarna ända upp till 25 kt
Sikt 10 km eller mer
Inga moln under 1 500 m eller inga cumulonimbus

TAF: ESSB 211130Z 2112/2115 28015G25KT CAVOK

Aktuella väderrapporter och prognoser från 4000 flygplatser (METAR- och TAF-rapporter).

De tillgängliga stationerna syns som gula och röda prickar på kartan.

För musen över prickarna för att se namnen på stationerna.

Klicka sedan för att få väderrapporter och prognoser.

För att ändra kartan: Klicka på de gröna knapparna med ett svart kors på för att zooma in; den gröna knappen med ett streck på för att zooma ut; eller på de gröna pilarna för angränsande kartor.


METAR-TAF: